Decoded Metar for LZKZ (KOSICE in SLOVAKIA) (IATA:KSC) | Meteo·Mobile Aviation Weather
aviador You're here:

LZKZ Decoded Metar

KOSICE in SLOVAKIA
Report Time2019-09-17 00:30:00
UTC Time2019-09-17 00:48:25
Flight Rules vfr VFR
WindVRB at 01 kt
Visibility9999 m
Phenomena:Light Rain
Clouds:Few 030 Hf
Broken 080 Hf
Expected CloudBase > 800 ft AGL from Temp-Dew spread
Ceiling8,000 ft
Temp15°C (ISA +2)
Dew Point13°C (88% RH)
QNH1013 hPa
Density Alt1,142 ft
Elevation761 ft
Report Wrong Elevation
Raw Report
LZKZ 170030Z VRB01KT 9999 -RA FEW030 BKN080 15/13 Q1013=

Extra information for LZKZ:More info

Metar Taf Metar & Taf Last 4 Metars F.Rules Stats Wind Profile Meteogram Temp Stats Airport Information Weather charts Add Link Nearby VenuesMetar ALERT Operation Metar Decoded Social comments